createdAt,value
2023-04-16T00:00:36.378Z,27.20
2023-04-16T00:03:04.129Z,28.27
2023-04-16T00:05:31.854Z,27.10
2023-04-16T00:07:59.412Z,31.23
2023-04-16T00:10:27.333Z,31.88
2023-04-16T00:12:55.286Z,29.48
2023-04-16T00:15:23.391Z,32.38
2023-04-16T00:17:51.321Z,29.63
2023-04-16T00:20:20.428Z,30.27
2023-04-16T00:22:48.574Z,30.75
2023-04-16T00:25:16.001Z,40.53
2023-04-16T00:27:43.538Z,36.05
2023-04-16T00:30:11.239Z,48.70
2023-04-16T00:32:38.852Z,36.90
2023-04-16T00:35:06.963Z,32.00
2023-04-16T00:37:34.686Z,31.80
2023-04-16T00:40:02.307Z,32.97
2023-04-16T00:42:29.786Z,39.53
2023-04-16T00:44:57.291Z,35.45
2023-04-16T00:47:25.434Z,35.42
2023-04-16T00:52:20.449Z,38.67
2023-04-16T00:54:48.496Z,35.38
2023-04-16T00:57:16.454Z,29.92
2023-04-16T00:59:43.979Z,30.90
2023-04-16T01:02:12.673Z,32.35
2023-04-16T01:04:40.402Z,33.08
2023-04-16T01:07:08.082Z,30.45
2023-04-16T01:09:35.819Z,33.28
2023-04-16T01:12:04.132Z,32.75
2023-04-16T01:14:36.216Z,35.55
2023-04-16T01:17:04.350Z,36.55
2023-04-16T01:19:31.955Z,42.00
2023-04-16T01:21:59.685Z,37.97
2023-04-16T01:24:27.190Z,43.15
2023-04-16T01:26:54.840Z,38.78
2023-04-16T01:29:22.371Z,42.42
2023-04-16T01:31:51.181Z,38.28
2023-04-16T01:34:37.759Z,33.97
2023-04-16T01:37:05.740Z,38.95
2023-04-16T01:39:33.248Z,35.80
2023-04-16T01:42:01.445Z,34.38
2023-04-16T01:46:56.456Z,36.72
2023-04-16T01:49:24.064Z,34.67
2023-04-16T01:51:51.763Z,36.55
2023-04-16T01:54:19.380Z,38.83
2023-04-16T01:56:46.942Z,32.75
2023-04-16T01:59:14.602Z,33.25
2023-04-16T02:04:12.001Z,35.50
2023-04-16T02:06:40.386Z,31.92
2023-04-16T02:09:08.037Z,30.02
2023-04-16T02:11:37.346Z,27.23
2023-04-16T02:14:05.062Z,28.52
2023-04-16T02:16:32.891Z,30.90
2023-04-16T02:19:10.112Z,29.17
2023-04-16T02:21:38.653Z,28.02
2023-04-16T02:24:06.269Z,28.00
2023-04-16T02:26:35.263Z,30.77
2023-04-16T02:29:08.204Z,26.80
2023-04-16T02:31:42.533Z,31.38
2023-04-16T02:34:11.665Z,29.02
2023-04-16T02:36:39.476Z,29.85
2023-04-16T02:39:07.340Z,26.77
2023-04-16T02:41:34.894Z,31.75
2023-04-16T02:44:02.854Z,29.20
2023-04-16T02:48:58.119Z,31.10
2023-04-16T02:51:26.400Z,29.90
2023-04-16T02:53:53.929Z,29.48
2023-04-16T02:56:21.484Z,29.83
2023-04-16T02:58:49.380Z,32.70
2023-04-16T03:01:18.145Z,36.03
2023-04-16T03:03:45.916Z,31.25
2023-04-16T03:06:13.571Z,29.80
2023-04-16T03:08:41.454Z,35.40
2023-04-16T03:11:08.843Z,35.20
2023-04-16T03:16:04.336Z,32.60
2023-04-16T03:18:32.066Z,36.47
2023-04-16T03:20:59.638Z,33.35
2023-04-16T03:23:28.168Z,33.03
2023-04-16T03:25:56.040Z,34.13
2023-04-16T03:28:23.534Z,35.83
2023-04-16T03:30:54.138Z,34.85
2023-04-16T03:33:22.740Z,35.90
2023-04-16T03:35:56.637Z,38.15
2023-04-16T03:38:26.744Z,33.42
2023-04-16T03:40:56.785Z,31.95
2023-04-16T03:43:24.500Z,35.33
2023-04-16T03:45:52.008Z,38.28
2023-04-16T03:48:23.097Z,39.42
2023-04-16T03:50:50.840Z,37.42
2023-04-16T03:53:20.589Z,36.97
2023-04-16T03:55:52.784Z,36.60
2023-04-16T03:58:21.794Z,43.63
2023-04-16T04:00:49.393Z,41.03
2023-04-16T04:03:18.660Z,43.17
2023-04-16T04:05:48.883Z,36.40
2023-04-16T04:08:22.414Z,37.03
2023-04-16T04:10:51.183Z,38.63
2023-04-16T04:13:21.408Z,36.30
2023-04-16T04:15:52.247Z,41.63
2023-04-16T04:18:20.739Z,39.22
2023-04-16T04:20:48.229Z,41.80
2023-04-16T04:23:18.424Z,43.40
2023-04-16T04:25:47.351Z,37.40
2023-04-16T04:28:14.889Z,39.05
2023-04-16T04:30:42.422Z,42.40
2023-04-16T04:33:10.090Z,45.08
2023-04-16T04:35:39.084Z,37.88
2023-04-16T04:38:06.727Z,42.17
2023-04-16T04:40:35.307Z,39.10
2023-04-16T04:43:04.369Z,46.47
2023-04-16T04:45:32.298Z,44.38
2023-04-16T04:50:27.935Z,47.42
2023-04-16T04:52:55.365Z,50.35
2023-04-16T04:55:23.067Z,44.20
2023-04-16T04:57:51.724Z,47.47
2023-04-16T05:00:20.931Z,41.95
2023-04-16T05:02:54.185Z,41.00
2023-04-16T05:05:22.213Z,42.50
2023-04-16T05:07:49.754Z,42.55
2023-04-16T05:10:17.295Z,40.67
2023-04-16T05:12:48.816Z,38.15
2023-04-16T05:15:16.976Z,35.97
2023-04-16T05:17:44.486Z,39.13
2023-04-16T05:20:12.527Z,33.60
2023-04-16T05:22:40.032Z,25.40
2023-04-16T05:25:07.898Z,30.08
2023-04-16T05:27:36.319Z,31.88
2023-04-16T05:30:04.210Z,36.90
2023-04-16T05:32:32.222Z,34.92
2023-04-16T05:34:59.655Z,40.65
2023-04-16T05:37:27.164Z,43.53
2023-04-16T05:39:54.681Z,43.08
2023-04-16T05:42:22.386Z,40.90
2023-04-16T05:44:52.246Z,51.75
2023-04-16T05:47:20.295Z,41.20
2023-04-16T05:49:47.693Z,43.50
2023-04-16T05:52:15.394Z,43.33
2023-04-16T05:54:42.929Z,44.45
2023-04-16T05:57:10.745Z,47.83
2023-04-16T05:59:38.718Z,39.75
2023-04-16T06:02:07.147Z,41.67
2023-04-16T06:04:35.818Z,36.83
2023-04-16T06:07:03.508Z,45.85
2023-04-16T06:09:31.026Z,47.63
2023-04-16T06:11:59.605Z,42.67
2023-04-16T06:14:27.457Z,44.38
2023-04-16T06:16:54.899Z,41.60
2023-04-16T06:19:22.397Z,44.08
2023-04-16T06:21:50.364Z,43.00
2023-04-16T06:24:18.549Z,24.40
2023-04-16T06:29:13.422Z,18.83
2023-04-16T06:31:41.252Z,18.40
2023-04-16T06:34:09.184Z,18.50
2023-04-16T06:36:37.711Z,23.08
2023-04-16T06:39:05.282Z,22.55
2023-04-16T06:41:32.861Z,22.17
2023-04-16T06:44:00.476Z,24.67
2023-04-16T06:46:28.142Z,23.90
2023-04-16T06:48:55.676Z,18.77
2023-04-16T06:51:23.360Z,17.10
2023-04-16T06:53:51.237Z,10.48
2023-04-16T06:56:19.141Z,9.02
2023-04-16T06:58:46.518Z,11.07
2023-04-16T07:01:14.143Z,6.95
2023-04-16T07:03:41.858Z,9.10
2023-04-16T07:06:09.769Z,8.45
2023-04-16T07:08:37.235Z,6.93
2023-04-16T07:11:05.201Z,6.53
2023-04-16T07:16:00.712Z,7.47
2023-04-16T07:20:55.633Z,9.50
2023-04-16T07:23:23.272Z,9.00
2023-04-16T07:25:50.746Z,7.30
2023-04-16T07:28:18.397Z,8.25
2023-04-16T07:30:45.972Z,8.77
2023-04-16T07:33:13.679Z,8.65
2023-04-16T07:35:41.185Z,9.50
2023-04-16T07:38:08.843Z,7.82
2023-04-16T07:40:37.058Z,7.50
2023-04-16T07:43:04.628Z,4.10
2023-04-16T07:45:32.152Z,5.68
2023-04-16T07:47:59.724Z,2.58
2023-04-16T07:50:27.445Z,2.15
2023-04-16T07:52:54.960Z,4.00
2023-04-16T07:55:22.675Z,4.15
2023-04-16T07:57:50.401Z,4.82
2023-04-16T08:00:18.124Z,4.20
2023-04-16T08:02:46.212Z,3.47
2023-04-16T08:07:41.193Z,2.13
2023-04-16T08:10:09.334Z,2.75
2023-04-16T08:15:05.474Z,1.70
2023-04-16T08:17:34.630Z,2.47
2023-04-16T08:20:02.163Z,3.08
2023-04-16T08:22:30.044Z,4.35
2023-04-16T08:24:57.619Z,2.40
2023-04-16T08:27:25.187Z,3.15
2023-04-16T08:29:52.814Z,3.15
2023-04-16T08:32:20.751Z,3.55
2023-04-16T08:34:48.539Z,5.75
2023-04-16T08:37:16.048Z,4.65
2023-04-16T08:39:43.622Z,7.20
2023-04-16T08:42:34.551Z,3.95
2023-04-16T08:45:09.143Z,6.70
2023-04-16T08:47:37.587Z,7.10
2023-04-16T08:50:06.369Z,4.47
2023-04-16T08:52:38.121Z,2.95
2023-04-16T08:55:14.616Z,5.70
2023-04-16T08:57:48.698Z,4.68
2023-04-16T09:00:16.950Z,2.95
2023-04-16T09:02:45.048Z,4.05
2023-04-16T09:05:17.196Z,5.93
2023-04-16T09:07:48.648Z,3.65
2023-04-16T09:10:16.884Z,4.10
2023-04-16T09:12:44.848Z,3.85
2023-04-16T09:17:40.692Z,4.63
2023-04-16T09:20:11.015Z,6.32
2023-04-16T09:22:42.512Z,4.95
2023-04-16T09:25:11.337Z,5.65
2023-04-16T09:27:39.463Z,5.55
2023-04-16T09:30:21.927Z,7.20
2023-04-16T09:32:50.643Z,2.83
2023-04-16T09:35:21.679Z,3.88
2023-04-16T09:37:57.262Z,12.50
2023-04-16T09:40:27.489Z,5.65
2023-04-16T09:42:58.616Z,5.32
2023-04-16T09:45:26.378Z,4.57
2023-04-16T09:48:03.254Z,4.28
2023-04-16T09:50:31.302Z,3.92
2023-04-16T09:53:03.158Z,5.28
2023-04-16T09:55:30.992Z,4.28
2023-04-16T09:58:02.339Z,3.30
2023-04-16T10:00:31.454Z,5.45
2023-04-16T10:03:07.159Z,3.33
2023-04-16T10:05:35.719Z,2.25
2023-04-16T10:08:03.644Z,4.57
2023-04-16T10:10:32.298Z,3.53
2023-04-16T10:13:00.196Z,4.25
2023-04-16T10:15:28.369Z,3.55
2023-04-16T10:17:58.124Z,4.75
2023-04-16T10:20:26.409Z,4.15
2023-04-16T10:22:54.725Z,5.45
2023-04-16T10:25:23.385Z,3.85
2023-04-16T10:27:51.410Z,5.43
2023-04-16T10:30:19.602Z,2.80
2023-04-16T10:32:47.615Z,3.17
2023-04-16T10:37:45.318Z,2.33
2023-04-16T10:40:24.823Z,7.07
2023-04-16T10:42:59.594Z,7.53
2023-04-16T10:45:37.866Z,8.25
2023-04-16T10:48:09.479Z,5.32
2023-04-16T10:50:37.621Z,5.35
2023-04-16T10:53:31.595Z,6.18
2023-04-16T10:56:05.690Z,4.40
2023-04-16T10:58:36.443Z,4.00
2023-04-16T11:01:14.589Z,6.70
2023-04-16T11:03:44.107Z,3.50
2023-04-16T11:06:17.634Z,4.93
2023-04-16T11:11:18.115Z,5.78
2023-04-16T11:13:46.768Z,5.40
2023-04-16T11:16:15.655Z,5.85
2023-04-16T11:18:51.569Z,4.03
2023-04-16T11:21:20.183Z,7.53
2023-04-16T11:23:52.780Z,5.82
2023-04-16T11:26:30.975Z,5.18
2023-04-16T11:29:00.224Z,4.45
2023-04-16T11:31:27.821Z,6.95
2023-04-16T11:33:56.787Z,8.10
2023-04-16T11:36:26.952Z,6.50
2023-04-16T11:39:02.836Z,4.72
2023-04-16T11:41:30.474Z,7.30
2023-04-16T11:43:58.373Z,7.85
2023-04-16T11:46:38.748Z,7.05
2023-04-16T11:49:06.306Z,5.03
2023-04-16T11:51:39.003Z,5.20
2023-04-16T11:54:10.369Z,4.20
2023-04-16T11:56:47.822Z,5.55
2023-04-16T11:59:17.854Z,7.97
2023-04-16T12:01:53.212Z,6.07
2023-04-16T12:04:26.003Z,6.38
2023-04-16T12:07:15.219Z,9.02
2023-04-16T12:09:43.581Z,9.55
2023-04-16T12:12:31.922Z,7.85
2023-04-16T12:15:03.697Z,7.75
2023-04-16T12:17:33.349Z,4.93
2023-04-16T12:20:09.554Z,5.65
2023-04-16T12:22:40.149Z,7.43
2023-04-16T12:25:11.759Z,6.60
2023-04-16T12:27:54.191Z,7.38
2023-04-16T12:30:24.300Z,9.90
2023-04-16T12:33:11.622Z,9.10
2023-04-16T12:35:39.475Z,6.82
2023-04-16T12:38:07.639Z,6.93
2023-04-16T12:43:03.885Z,6.57
2023-04-16T12:45:31.451Z,6.57
2023-04-16T12:47:59.676Z,5.85
2023-04-16T12:50:28.877Z,10.13
2023-04-16T12:52:57.434Z,6.10
2023-04-16T12:55:25.932Z,7.38
2023-04-16T12:57:54.294Z,4.88
2023-04-16T13:00:22.020Z,4.78
2023-04-16T13:02:49.737Z,11.18
2023-04-16T13:05:19.288Z,7.75
2023-04-16T13:07:47.319Z,5.45
2023-04-16T13:10:14.965Z,5.70
2023-04-16T13:12:42.590Z,4.93
2023-04-16T13:15:10.687Z,8.50
2023-04-16T13:17:38.308Z,6.13
2023-04-16T13:20:06.351Z,5.57
2023-04-16T13:22:34.023Z,6.93
2023-04-16T13:25:01.573Z,7.85
2023-04-16T13:27:29.210Z,9.00
2023-04-16T13:29:56.747Z,8.30
2023-04-16T13:32:24.477Z,5.75
2023-04-16T13:34:52.181Z,8.20
2023-04-16T13:37:19.744Z,8.65
2023-04-16T13:39:47.396Z,8.60
2023-04-16T13:42:15.383Z,9.10
2023-04-16T13:44:43.045Z,10.30
2023-04-16T13:47:11.329Z,6.82
2023-04-16T13:49:38.908Z,10.18
2023-04-16T13:52:06.529Z,8.95
2023-04-16T13:54:34.311Z,7.97
2023-04-16T13:57:01.907Z,10.15
2023-04-16T13:59:29.948Z,8.82
2023-04-16T14:01:57.730Z,13.00
2023-04-16T14:04:25.693Z,13.35
2023-04-16T14:06:53.258Z,9.40
2023-04-16T14:09:21.015Z,8.63
2023-04-16T14:11:49.042Z,10.25
2023-04-16T14:14:16.453Z,10.73
2023-04-16T14:16:44.402Z,10.68
2023-04-16T14:19:12.368Z,9.55
2023-04-16T14:21:40.651Z,12.43
2023-04-16T14:24:09.338Z,8.52
2023-04-16T14:26:36.948Z,9.00
2023-04-16T14:29:05.356Z,10.70
2023-04-16T14:31:33.584Z,10.82
2023-04-16T14:34:01.391Z,8.85
2023-04-16T14:36:31.112Z,10.23
2023-04-16T14:38:58.652Z,8.18
2023-04-16T14:41:26.377Z,10.13
2023-04-16T14:43:53.948Z,9.23
2023-04-16T14:46:21.516Z,7.10
2023-04-16T14:48:49.185Z,11.65
2023-04-16T14:51:16.780Z,11.40
2023-04-16T14:53:44.376Z,7.53
2023-04-16T14:56:13.009Z,9.63
2023-04-16T14:58:42.831Z,9.50
2023-04-16T15:01:10.537Z,11.13
2023-04-16T15:03:39.359Z,12.10
2023-04-16T15:06:08.578Z,8.38
2023-04-16T15:08:36.368Z,7.70
2023-04-16T15:11:04.188Z,11.30
2023-04-16T15:13:34.354Z,10.00
2023-04-16T15:16:02.530Z,12.82
2023-04-16T15:20:58.051Z,11.18
2023-04-16T15:25:53.427Z,9.63
2023-04-16T15:28:21.157Z,8.55
2023-04-16T15:30:48.823Z,11.10
2023-04-16T15:33:16.730Z,11.45
2023-04-16T15:38:11.853Z,9.95
2023-04-16T15:40:39.521Z,9.18
2023-04-16T15:43:07.462Z,10.27
2023-04-16T15:45:35.458Z,11.20
2023-04-16T15:50:34.868Z,8.85
2023-04-16T15:53:03.159Z,12.93
2023-04-16T15:55:30.900Z,10.10
2023-04-16T15:57:58.851Z,7.70
2023-04-16T16:02:55.251Z,10.80
2023-04-16T16:07:51.471Z,10.45
2023-04-16T16:10:20.437Z,9.80
2023-04-16T16:12:48.514Z,13.20
2023-04-16T16:15:16.664Z,11.02
2023-04-16T16:17:44.646Z,11.68
2023-04-16T16:22:41.942Z,12.52
2023-04-16T16:25:10.306Z,9.15
2023-04-16T16:27:38.187Z,16.38
2023-04-16T16:30:07.409Z,9.25
2023-04-16T16:32:35.186Z,13.52
2023-04-16T16:35:03.107Z,14.48
2023-04-16T16:37:30.803Z,11.02
2023-04-16T16:39:58.391Z,11.80
2023-04-16T16:42:26.640Z,12.90
2023-04-16T16:44:56.704Z,13.80
2023-04-16T16:47:25.464Z,14.32
2023-04-16T16:49:54.773Z,12.45
2023-04-16T16:52:26.524Z,13.80
2023-04-16T16:54:54.827Z,10.93
2023-04-16T16:57:23.820Z,10.50
2023-04-16T16:59:51.585Z,11.60
2023-04-16T17:02:19.201Z,8.70
2023-04-16T17:04:47.448Z,13.63
2023-04-16T17:09:42.523Z,9.60
2023-04-16T17:12:10.190Z,13.20
2023-04-16T17:14:38.521Z,11.05
2023-04-16T17:17:06.212Z,11.35
2023-04-16T17:19:34.716Z,11.57
2023-04-16T17:22:03.567Z,9.50
2023-04-16T17:24:31.380Z,11.90
2023-04-16T17:26:59.200Z,11.55
2023-04-16T17:29:27.167Z,7.57
2023-04-16T17:34:22.903Z,8.35
2023-04-16T17:36:50.967Z,9.98
2023-04-16T17:39:21.005Z,11.88
2023-04-16T17:41:54.320Z,9.50
2023-04-16T17:44:23.412Z,11.70
2023-04-16T17:46:51.303Z,13.25
2023-04-16T17:49:19.294Z,10.48
2023-04-16T17:56:42.264Z,10.68
2023-04-16T17:59:09.985Z,11.70
2023-04-16T18:01:38.735Z,10.77
2023-04-16T18:04:07.213Z,8.65
2023-04-16T18:06:35.288Z,13.50
2023-04-16T18:11:32.530Z,9.80
2023-04-16T18:14:00.566Z,10.65
2023-04-16T18:18:56.077Z,12.25
2023-04-16T18:21:23.648Z,8.52
2023-04-16T18:23:51.227Z,8.05
2023-04-16T18:26:22.608Z,10.68
2023-04-16T18:28:51.180Z,14.60
2023-04-16T18:31:21.089Z,11.45
2023-04-16T18:33:57.307Z,8.38
2023-04-16T18:36:27.355Z,9.52
2023-04-16T18:39:02.109Z,10.98
2023-04-16T18:41:31.168Z,12.82
2023-04-16T18:43:58.990Z,12.20
2023-04-16T18:46:27.638Z,12.40
2023-04-16T18:48:55.556Z,12.93
2023-04-16T18:51:23.395Z,10.45
2023-04-16T18:53:51.395Z,11.52
2023-04-16T18:58:47.827Z,9.00
2023-04-16T19:01:16.553Z,8.88
2023-04-16T19:03:44.370Z,10.52
2023-04-16T19:06:11.966Z,11.07
2023-04-16T19:08:39.456Z,16.67
2023-04-16T19:11:07.385Z,10.23
2023-04-16T19:16:04.346Z,13.75
2023-04-16T19:18:32.175Z,14.55
2023-04-16T19:21:01.002Z,14.10
2023-04-16T19:23:29.423Z,12.18
2023-04-16T19:25:57.304Z,14.85
2023-04-16T19:28:25.473Z,12.60
2023-04-16T19:30:54.244Z,15.60
2023-04-16T19:33:21.890Z,11.65
2023-04-16T19:35:49.804Z,11.68
2023-04-16T19:38:17.771Z,10.30
2023-04-16T19:40:48.866Z,12.68
2023-04-16T19:43:16.456Z,10.43
2023-04-16T19:45:52.331Z,11.90
2023-04-16T19:48:21.530Z,10.38
2023-04-16T19:50:49.372Z,15.63
2023-04-16T19:55:45.186Z,12.00
2023-04-16T19:58:14.500Z,12.82
2023-04-16T20:00:42.566Z,13.85
2023-04-16T20:03:10.636Z,8.95
2023-04-16T20:05:38.313Z,10.75
2023-04-16T20:08:06.601Z,10.85
2023-04-16T20:13:01.789Z,13.32
2023-04-16T20:15:29.485Z,20.30
2023-04-16T20:17:57.080Z,12.35
2023-04-16T20:20:24.550Z,8.07
2023-04-16T20:22:52.123Z,12.23
2023-04-16T20:25:19.781Z,9.20
2023-04-16T20:27:47.413Z,12.15
2023-04-16T20:30:15.333Z,11.40
2023-04-16T20:32:43.254Z,10.15
2023-04-16T20:35:11.693Z,10.27
2023-04-16T20:37:41.914Z,10.40
2023-04-16T20:40:11.027Z,12.15
2023-04-16T20:42:38.586Z,16.63
2023-04-16T20:45:07.461Z,10.07
2023-04-16T20:47:35.460Z,11.82
2023-04-16T20:50:03.852Z,11.38
2023-04-16T20:52:31.632Z,9.70
2023-04-16T20:55:00.540Z,8.80
2023-04-16T20:57:29.900Z,10.18
2023-04-16T20:59:58.706Z,9.82
2023-04-16T21:02:28.657Z,9.45
2023-04-16T21:04:56.642Z,11.73
2023-04-16T21:07:24.173Z,13.57
2023-04-16T21:09:51.963Z,12.80
2023-04-16T21:12:19.520Z,10.38
2023-04-16T21:14:47.191Z,10.95
2023-04-16T21:17:14.794Z,11.35
2023-04-16T21:19:42.321Z,13.70
2023-04-16T21:22:10.371Z,10.80
2023-04-16T21:24:38.404Z,10.27
2023-04-16T21:27:05.907Z,8.88
2023-04-16T21:29:33.499Z,18.50
2023-04-16T21:32:01.180Z,10.80
2023-04-16T21:34:29.394Z,13.20
2023-04-16T21:39:27.565Z,14.32
2023-04-16T21:41:55.063Z,12.63
2023-04-16T21:44:25.074Z,13.98
2023-04-16T21:46:52.868Z,13.48
2023-04-16T21:49:20.873Z,15.13
2023-04-16T21:51:50.233Z,16.02
2023-04-16T21:54:34.937Z,13.70
2023-04-16T21:57:12.836Z,14.07
2023-04-16T22:08:37.266Z,15.30
2023-04-16T22:11:05.385Z,14.05
2023-04-16T22:13:33.682Z,17.75
2023-04-16T22:16:01.773Z,16.15
2023-04-16T22:18:33.177Z,14.57
2023-04-16T22:21:03.841Z,21.40
2023-04-16T22:23:32.423Z,20.02
2023-04-16T22:26:00.339Z,19.08
2023-04-16T22:28:27.952Z,18.38
2023-04-16T22:30:56.712Z,20.27
2023-04-16T22:33:24.255Z,18.05
2023-04-16T22:35:51.868Z,19.83
2023-04-16T22:38:19.513Z,23.88
2023-04-16T22:40:50.587Z,18.65
2023-04-16T22:43:18.317Z,17.33
2023-04-16T22:45:46.373Z,16.42
2023-04-16T22:48:14.474Z,24.35
2023-04-16T22:50:48.587Z,18.42
2023-04-16T22:53:16.430Z,16.50
2023-04-16T22:55:44.014Z,21.98
2023-04-16T22:58:12.943Z,19.80
2023-04-16T23:00:42.149Z,15.68
2023-04-16T23:03:10.357Z,20.17
2023-04-16T23:05:38.143Z,14.90
2023-04-16T23:08:06.226Z,13.68
2023-04-16T23:13:01.780Z,18.92
2023-04-16T23:20:24.817Z,23.27
2023-04-16T23:22:52.961Z,21.42
2023-04-16T23:27:50.677Z,27.58
2023-04-16T23:32:45.699Z,27.83
2023-04-16T23:35:13.678Z,30.60
2023-04-16T23:37:41.275Z,23.73
2023-04-16T23:40:09.734Z,24.67
2023-04-16T23:42:37.852Z,23.05
2023-04-16T23:45:05.983Z,30.85
2023-04-16T23:47:33.989Z,36.13
2023-04-16T23:50:02.133Z,32.40
2023-04-16T23:54:57.090Z,29.05
2023-04-16T23:57:25.319Z,32.22
2023-04-16T23:59:56.993Z,35.80
